createdAt,value
2022-12-19T00:01:35.404Z,99159.63
2022-12-19T00:04:07.804Z,99150.78
2022-12-19T00:06:43.402Z,99144.97
2022-12-19T00:09:12.739Z,99131.47
2022-12-19T00:11:40.907Z,99139.22
2022-12-19T00:14:10.900Z,99133.66
2022-12-19T00:16:38.690Z,99146.78
2022-12-19T00:19:05.552Z,99139.31
2022-12-19T00:21:35.160Z,99135.56
2022-12-19T00:24:10.498Z,99141.22
2022-12-19T00:26:47.833Z,99141.06
2022-12-19T00:29:14.981Z,99142.75
2022-12-19T00:31:43.148Z,99146.91
2022-12-19T00:34:10.218Z,99129.91
2022-12-19T00:36:37.030Z,99124.97
2022-12-19T00:39:08.462Z,99124.53
2022-12-19T00:41:41.307Z,99127.72
2022-12-19T00:44:13.821Z,99111.91
2022-12-19T00:46:40.785Z,99116.09
2022-12-19T00:49:07.939Z,99135.91
2022-12-19T00:51:37.276Z,99117.81
2022-12-19T00:54:07.296Z,99110.16
2022-12-19T00:56:37.930Z,99105.78
2022-12-19T00:59:06.464Z,99099.81
2022-12-19T01:01:37.714Z,99091.06
2022-12-19T01:06:54.646Z,99090.25
2022-12-19T01:09:27.941Z,99097.97
2022-12-19T01:12:13.210Z,99091.09
2022-12-19T01:14:40.016Z,99092.59
2022-12-19T01:17:06.830Z,99105.06
2022-12-19T01:19:37.753Z,99115.28
2022-12-19T01:22:07.206Z,99123.16
2022-12-19T01:24:34.380Z,99115.28
2022-12-19T01:27:01.175Z,99117.56
2022-12-19T01:29:27.938Z,99111.94
2022-12-19T01:31:54.917Z,99116.97
2022-12-19T01:34:21.709Z,99107.78
2022-12-19T01:36:48.487Z,99116.09
2022-12-19T01:39:15.270Z,99116.97
2022-12-19T01:41:42.120Z,99114.06
2022-12-19T01:44:09.404Z,99129.25
2022-12-19T01:46:53.071Z,99111.97
2022-12-19T01:49:32.198Z,99110.53
2022-12-19T01:52:13.504Z,99098.88
2022-12-19T01:54:50.664Z,99102.84
2022-12-19T01:57:19.932Z,99101.97
2022-12-19T01:59:53.349Z,99106.75
2022-12-19T02:03:08.005Z,99111.34
2022-12-19T02:05:39.532Z,99103.66
2022-12-19T02:08:07.500Z,99107.81
2022-12-19T02:10:34.641Z,99109.91
2022-12-19T02:13:01.600Z,99108.03
2022-12-19T02:15:33.793Z,99105.75
2022-12-19T02:18:21.513Z,99112.81
2022-12-19T02:21:13.841Z,99102.44
2022-12-19T02:24:40.674Z,99094.53
2022-12-19T02:27:22.436Z,99083.28
2022-12-19T02:30:07.334Z,99084.09
2022-12-19T02:33:03.022Z,99075.56
2022-12-19T02:35:51.968Z,99081.81
2022-12-19T02:38:52.037Z,99096.19
2022-12-19T02:41:43.433Z,99090.16
2022-12-19T02:44:20.163Z,99085.34
2022-12-19T02:46:49.160Z,99097.44
2022-12-19T02:49:21.367Z,99092.66
2022-12-19T02:51:54.100Z,99083.50
2022-12-19T02:54:21.719Z,99084.75
2022-12-19T02:57:36.155Z,99081.63
2022-12-19T03:00:16.428Z,99084.13
2022-12-19T03:03:06.317Z,99094.72
2022-12-19T03:05:44.382Z,99100.75
2022-12-19T03:08:42.513Z,99092.00
2022-12-19T03:11:13.655Z,99084.94
2022-12-19T03:13:48.697Z,99081.22
2022-12-19T03:16:15.789Z,99086.44
2022-12-19T03:18:44.107Z,99079.56
2022-12-19T03:21:33.814Z,99080.59
2022-12-19T03:24:01.707Z,99082.25
2022-12-19T03:26:37.496Z,99077.88
2022-12-19T03:29:28.522Z,99090.38
2022-12-19T03:31:57.713Z,99087.44
2022-12-19T03:34:44.172Z,99080.34
2022-12-19T03:37:21.231Z,99083.47
2022-12-19T03:40:07.782Z,99083.94
2022-12-19T03:42:56.766Z,99066.59
2022-12-19T03:45:34.038Z,99066.38
2022-12-19T03:48:18.951Z,99070.75
2022-12-19T03:50:56.276Z,99071.38
2022-12-19T03:53:58.134Z,99067.41
2022-12-19T03:57:10.792Z,99063.88
2022-12-19T03:59:45.727Z,99069.91
2022-12-19T04:02:15.855Z,99072.00
2022-12-19T04:04:46.478Z,99063.00
2022-12-19T04:07:15.250Z,99048.63
2022-12-19T04:09:45.159Z,99052.59
2022-12-19T04:12:18.380Z,99044.03
2022-12-19T04:14:46.009Z,99057.19
2022-12-19T04:17:48.592Z,99065.72
2022-12-19T04:20:22.360Z,99062.59
2022-12-19T04:23:02.375Z,99061.56
2022-12-19T04:25:52.741Z,99064.91
2022-12-19T04:28:27.349Z,99064.66
2022-12-19T04:30:54.812Z,99063.41
2022-12-19T04:33:21.649Z,99069.88
2022-12-19T04:35:49.182Z,99075.69
2022-12-19T04:38:16.017Z,99065.25
2022-12-19T04:40:42.804Z,99062.97
2022-12-19T04:43:09.809Z,99056.72
2022-12-19T04:45:36.904Z,99058.16
2022-12-19T04:48:04.419Z,99070.22
2022-12-19T04:50:34.198Z,99066.50
2022-12-19T04:53:01.705Z,99073.56
2022-12-19T04:55:28.594Z,99066.91
2022-12-19T04:57:55.635Z,99062.28
2022-12-19T05:00:22.475Z,99071.88
2022-12-19T05:02:49.512Z,99067.91
2022-12-19T05:05:18.448Z,99063.09
2022-12-19T05:07:45.286Z,99082.28
2022-12-19T05:10:12.110Z,99059.31
2022-12-19T05:12:38.920Z,99061.22
2022-12-19T05:15:06.656Z,99056.84
2022-12-19T05:17:33.651Z,99047.44
2022-12-19T05:20:00.459Z,99043.28
2022-12-19T05:22:27.417Z,99044.94
2022-12-19T05:24:54.385Z,99045.56
2022-12-19T05:27:21.319Z,99049.34
2022-12-19T05:29:48.089Z,99038.50
2022-12-19T05:32:15.133Z,99035.53
2022-12-19T05:34:41.919Z,99045.16
2022-12-19T05:37:08.669Z,99049.50
2022-12-19T05:39:35.643Z,99036.56
2022-12-19T05:42:02.472Z,99040.94
2022-12-19T05:44:29.281Z,99040.53
2022-12-19T05:46:56.158Z,99040.94
2022-12-19T05:49:22.999Z,99031.75
2022-12-19T05:51:51.585Z,99036.56
2022-12-19T05:54:18.565Z,99024.69
2022-12-19T05:56:45.373Z,99030.91
2022-12-19T05:59:12.592Z,99024.25
2022-12-19T06:01:39.733Z,99022.56
2022-12-19T06:04:08.279Z,99037.16
2022-12-19T06:06:35.112Z,99021.34
2022-12-19T06:09:03.131Z,99019.84
2022-12-19T06:11:30.004Z,99011.72
2022-12-19T06:13:56.929Z,99009.00
2022-12-19T06:16:24.613Z,99012.34
2022-12-19T06:18:54.433Z,99013.41
2022-12-19T06:21:23.623Z,99011.91
2022-12-19T06:23:51.302Z,99004.59
2022-12-19T06:26:20.686Z,99019.16
2022-12-19T06:28:49.502Z,99011.03
2022-12-19T06:31:17.324Z,99027.53
2022-12-19T06:33:44.564Z,99010.22
2022-12-19T06:36:23.311Z,99013.13
2022-12-19T06:38:51.369Z,99014.56
2022-12-19T06:41:38.135Z,99017.50
2022-12-19T06:44:09.423Z,99006.66
2022-12-19T06:46:37.950Z,99008.94
2022-12-19T06:49:05.750Z,99017.28
2022-12-19T06:51:32.972Z,99010.38
2022-12-19T06:54:00.049Z,99007.25
2022-12-19T06:56:27.280Z,99009.75
2022-12-19T06:58:54.476Z,99006.22
2022-12-19T07:01:49.739Z,99009.75
2022-12-19T07:04:25.546Z,99016.19
2022-12-19T07:06:52.374Z,98998.47
2022-12-19T07:09:19.155Z,98999.50
2022-12-19T07:11:45.972Z,98994.94
2022-12-19T07:14:13.093Z,98999.97
2022-12-19T07:16:41.555Z,99001.81
2022-12-19T07:19:09.128Z,98988.25
2022-12-19T07:21:36.936Z,98997.81
2022-12-19T07:24:05.009Z,98998.88
2022-12-19T07:26:32.837Z,98996.16
2022-12-19T07:29:00.704Z,98997.81
2022-12-19T07:31:27.780Z,98994.09
2022-12-19T07:33:54.652Z,98991.56
2022-12-19T07:36:21.441Z,98986.97
2022-12-19T07:38:48.506Z,98978.81
2022-12-19T07:41:15.307Z,98999.47
2022-12-19T07:43:42.216Z,99012.38
2022-12-19T07:46:09.258Z,99012.38
2022-12-19T07:48:36.057Z,99023.22
2022-12-19T07:51:05.519Z,99023.63
2022-12-19T07:53:32.759Z,99025.31
2022-12-19T07:55:59.867Z,99030.13
2022-12-19T07:58:26.667Z,99015.69
2022-12-19T08:01:01.033Z,99021.13
2022-12-19T08:03:28.805Z,99007.34
2022-12-19T08:06:06.775Z,99005.25
2022-12-19T08:08:34.660Z,99010.84
2022-12-19T08:11:17.634Z,99008.56
2022-12-19T08:13:46.918Z,99014.78
2022-12-19T08:16:15.424Z,99021.09
2022-12-19T08:18:42.383Z,99018.56
2022-12-19T08:21:10.809Z,99014.78
2022-12-19T08:23:40.743Z,99018.56
2022-12-19T08:26:12.649Z,99011.47
2022-12-19T08:28:40.479Z,99024.81
2022-12-19T08:31:09.963Z,99014.56
2022-12-19T08:33:37.739Z,99013.28
2022-12-19T08:36:12.014Z,99010.56
2022-12-19T08:38:42.692Z,99013.69
2022-12-19T08:41:09.917Z,99005.75
2022-12-19T08:43:36.841Z,99014.53
2022-12-19T08:46:04.308Z,99024.31
2022-12-19T08:48:35.717Z,99018.91
2022-12-19T08:51:07.031Z,99020.78
2022-12-19T08:53:38.134Z,99007.22
2022-12-19T08:56:19.935Z,99010.97
2022-12-19T08:58:46.828Z,99003.50
2022-12-19T09:01:19.284Z,99006.81
2022-12-19T09:04:36.480Z,99008.94
2022-12-19T09:06:34.352Z,98990.13
2022-12-19T09:09:01.266Z,98978.88
2022-12-19T09:11:28.221Z,98982.41
2022-12-19T09:13:57.552Z,98987.22
2022-12-19T09:16:27.568Z,98986.75
2022-12-19T09:18:58.973Z,98992.81
2022-12-19T09:21:32.100Z,98982.56
2022-12-19T09:24:07.444Z,98970.03
2022-12-19T09:26:38.329Z,98979.25
2022-12-19T09:29:19.705Z,98998.41
2022-12-19T09:31:51.457Z,99011.16
2022-12-19T09:34:37.668Z,99008.22
2022-12-19T09:37:16.075Z,99017.19
2022-12-19T09:39:45.669Z,99015.28
2022-12-19T09:42:30.721Z,99006.53
2022-12-19T09:45:31.799Z,99009.88
2022-12-19T09:48:00.935Z,99002.34
2022-12-19T09:50:48.735Z,99010.66
2022-12-19T09:53:45.193Z,98998.56
2022-12-19T09:56:24.227Z,98998.53
2022-12-19T09:58:58.897Z,98990.19
2022-12-19T10:01:37.806Z,98983.50
2022-12-19T10:04:18.499Z,98979.69
2022-12-19T10:07:20.388Z,98979.50
2022-12-19T10:11:59.380Z,98994.13
2022-12-19T10:12:59.645Z,98976.56
2022-12-19T10:15:59.973Z,98983.19
2022-12-19T10:18:54.449Z,98988.63
2022-12-19T10:25:22.942Z,98981.91
2022-12-19T10:28:18.763Z,98974.84
2022-12-19T10:30:53.014Z,98976.25
2022-12-19T10:34:09.273Z,98996.34
2022-12-19T10:39:53.809Z,98988.19
2022-12-19T10:43:07.464Z,98976.47
2022-12-19T10:45:48.792Z,98981.78
2022-12-19T10:48:24.295Z,98983.59
2022-12-19T10:50:57.310Z,98979.88
2022-12-19T10:53:29.751Z,98965.63
2022-12-19T10:56:03.210Z,98976.94
2022-12-19T10:58:36.973Z,98970.91
2022-12-19T11:01:22.661Z,98976.94
2022-12-19T11:04:10.329Z,98965.25
2022-12-19T11:06:48.027Z,98963.16
2022-12-19T11:09:46.037Z,98957.72
2022-12-19T11:15:59.971Z,98958.53
2022-12-19T11:19:50.807Z,98944.34
2022-12-19T11:28:14.544Z,98938.03
2022-12-19T11:29:31.405Z,98931.38
2022-12-19T11:29:44.648Z,98928.88
2022-12-19T11:29:54.650Z,98934.09
2022-12-19T11:32:44.970Z,98932.81
2022-12-19T11:35:24.454Z,98916.13
2022-12-19T11:38:06.858Z,98891.69
2022-12-19T11:40:48.732Z,98895.00
2022-12-19T11:43:44.559Z,98887.47
2022-12-19T11:46:49.564Z,98897.50
2022-12-19T11:50:01.853Z,98891.41
2022-12-19T11:53:19.132Z,98892.75
2022-12-19T11:56:04.104Z,98872.78
2022-12-19T11:58:34.637Z,98874.41
2022-12-19T12:01:40.210Z,98862.03
2022-12-19T12:04:38.344Z,98844.59
2022-12-19T12:07:15.497Z,98849.38
2022-12-19T12:15:48.036Z,98839.91
2022-12-19T12:21:38.652Z,98842.03
2022-12-19T12:24:49.653Z,98837.34
2022-12-19T12:31:00.204Z,98841.81
2022-12-19T12:31:42.134Z,98832.75
2022-12-19T12:31:47.725Z,98850.34
2022-12-19T12:31:57.251Z,98843.38
2022-12-19T12:37:08.232Z,98829.97
2022-12-19T12:38:23.949Z,98827.03
2022-12-19T12:41:08.423Z,98818.66
2022-12-19T12:43:50.446Z,98819.88
2022-12-19T12:46:26.610Z,98813.84
2022-12-19T12:49:18.132Z,98809.44
2022-12-19T12:51:46.516Z,98812.91
2022-12-19T12:54:15.666Z,98808.06
2022-12-19T12:56:44.945Z,98794.69
2022-12-19T12:59:28.866Z,98784.22
2022-12-19T13:02:08.307Z,98769.09
2022-12-19T13:04:44.569Z,98784.94
2022-12-19T13:07:20.264Z,98794.38
2022-12-19T13:10:06.588Z,98784.94
2022-12-19T13:12:51.916Z,98783.75
2022-12-19T13:15:27.910Z,98776.19
2022-12-19T13:17:54.732Z,98783.28
2022-12-19T13:20:25.976Z,98787.28
2022-12-19T13:23:00.202Z,98775.81
2022-12-19T13:25:27.003Z,98798.38
2022-12-19T13:28:02.728Z,98807.84
2022-12-19T13:30:32.464Z,98817.75
2022-12-19T13:33:19.099Z,98798.25
2022-12-19T13:39:47.010Z,98798.13
2022-12-19T13:40:01.585Z,98811.22
2022-12-19T13:42:01.620Z,98809.09
2022-12-19T13:44:29.595Z,98817.25
2022-12-19T13:46:56.716Z,98808.13
2022-12-19T13:49:34.275Z,98817.16
2022-12-19T13:52:05.145Z,98798.72
2022-12-19T13:54:45.122Z,98806.50
2022-12-19T13:57:27.249Z,98810.25
2022-12-19T14:00:02.828Z,98804.59
2022-12-19T14:02:43.639Z,98808.13
2022-12-19T14:06:18.497Z,98804.00
2022-12-19T14:08:25.573Z,98816.41
2022-12-19T14:11:41.513Z,98809.44
2022-12-19T14:14:37.836Z,98812.16
2022-12-19T14:17:23.028Z,98818.66
2022-12-19T14:19:53.322Z,98826.81
2022-12-19T14:22:40.091Z,98824.44
2022-12-19T14:28:20.605Z,98816.53
2022-12-19T14:28:26.940Z,98818.88
2022-12-19T14:31:04.667Z,98837.69
2022-12-19T14:34:04.119Z,98834.50
2022-12-19T14:36:33.668Z,98839.47
2022-12-19T14:39:24.148Z,98833.56
2022-12-19T14:42:10.179Z,98827.31
2022-12-19T14:53:51.488Z,98824.38
2022-12-19T14:54:01.798Z,98826.94
2022-12-19T14:54:18.686Z,98831.63
2022-12-19T14:54:27.386Z,98845.13
2022-12-19T14:56:40.682Z,98845.34
2022-12-19T14:59:05.463Z,98842.03
2022-12-19T15:01:34.491Z,98845.13
2022-12-19T15:04:52.575Z,98843.72
2022-12-19T15:07:20.968Z,98849.97
2022-12-19T15:11:05.551Z,98842.50
2022-12-19T15:14:52.405Z,98845.19
2022-12-19T15:16:24.929Z,98849.00
2022-12-19T15:18:59.287Z,98845.91
2022-12-19T15:21:28.031Z,98842.59
2022-12-19T15:23:55.168Z,98852.25
2022-12-19T15:26:48.349Z,98844.22
2022-12-19T15:29:19.886Z,98857.69
2022-12-19T15:31:48.848Z,98848.84
2022-12-19T15:34:40.073Z,98846.34
2022-12-19T15:37:13.958Z,98854.28
2022-12-19T15:39:41.884Z,98847.78
2022-12-19T15:42:21.564Z,98855.34
2022-12-19T15:44:49.862Z,98859.94
2022-12-19T15:47:29.890Z,98864.75
2022-12-19T15:49:58.412Z,98862.63
2022-12-19T15:52:25.791Z,98862.41
2022-12-19T15:54:52.655Z,98862.25
2022-12-19T15:57:36.362Z,98872.69
2022-12-19T16:00:27.955Z,98866.06
2022-12-19T16:03:23.593Z,98869.81
2022-12-19T16:05:43.478Z,98876.75
2022-12-19T16:08:19.139Z,98886.19
2022-12-19T16:10:56.025Z,98886.84
2022-12-19T16:13:31.602Z,98897.59
2022-12-19T16:15:59.226Z,98897.59
2022-12-19T16:18:26.430Z,98900.22
2022-12-19T16:20:53.652Z,98913.56
2022-12-19T16:23:22.486Z,98923.63
2022-12-19T16:25:50.972Z,98941.94
2022-12-19T16:28:29.386Z,98946.56
2022-12-19T16:30:58.230Z,98950.09
2022-12-19T16:33:30.788Z,98959.91
2022-12-19T16:36:06.952Z,98967.59
2022-12-19T16:38:35.505Z,98982.84
2022-12-19T16:41:02.808Z,98986.00
2022-12-19T16:43:35.481Z,98984.34
2022-12-19T16:46:06.511Z,98989.09
2022-12-19T16:48:36.062Z,98983.06
2022-12-19T16:51:03.338Z,98988.88
2022-12-19T16:53:30.181Z,98998.31
2022-12-19T16:55:57.643Z,98998.06
2022-12-19T16:58:27.930Z,99004.78
2022-12-19T17:00:55.889Z,98994.31
2022-12-19T17:03:52.322Z,99009.19
2022-12-19T17:06:21.423Z,99019.81
2022-12-19T17:08:49.536Z,99014.84
2022-12-19T17:11:23.733Z,99025.25
2022-12-19T17:14:17.242Z,99026.75
2022-12-19T17:16:45.081Z,99030.66
2022-12-19T17:19:21.796Z,99026.31
2022-12-19T17:21:49.921Z,99025.25
2022-12-19T17:24:17.642Z,99033.84
2022-12-19T17:26:46.861Z,99041.53
2022-12-19T17:29:14.256Z,99035.50
2022-12-19T17:31:42.218Z,99040.31
2022-12-19T17:34:32.498Z,99040.31
2022-12-19T17:37:01.606Z,99040.31
2022-12-19T17:39:31.222Z,99046.38
2022-12-19T17:42:20.442Z,99053.28
2022-12-19T17:44:47.465Z,99052.47
2022-12-19T17:47:19.845Z,99064.63
2022-12-19T17:49:48.713Z,99047.69
2022-12-19T17:52:18.827Z,99057.94
2022-12-19T17:54:46.103Z,99056.31
2022-12-19T17:57:18.087Z,99064.66
2022-12-19T17:59:46.849Z,99062.16
2022-12-19T18:02:24.200Z,99068.88
2022-12-19T18:04:52.226Z,99074.75
2022-12-19T18:07:19.597Z,99079.13
2022-12-19T18:09:46.522Z,99083.94
2022-12-19T18:12:14.004Z,99080.38
2022-12-19T18:14:40.861Z,99082.50
2022-12-19T18:17:12.936Z,99081.84
2022-12-19T18:19:40.386Z,99077.50
2022-12-19T18:22:13.620Z,99074.78
2022-12-19T18:24:40.888Z,99076.88
2022-12-19T18:27:07.929Z,99086.88
2022-12-19T18:29:34.991Z,99091.50
2022-12-19T18:32:01.874Z,99080.41
2022-12-19T18:34:31.322Z,99086.88
2022-12-19T18:36:58.480Z,99085.25
2022-12-19T18:39:29.137Z,99088.78
2022-12-19T18:41:55.967Z,99085.66
2022-12-19T18:44:23.385Z,99086.94
2022-12-19T18:46:52.163Z,99087.38
2022-12-19T18:49:19.776Z,99089.44
2022-12-19T18:51:47.529Z,99087.78
2022-12-19T18:54:18.488Z,99094.88
2022-12-19T18:56:46.045Z,99099.91
2022-12-19T18:59:12.923Z,99092.81
2022-12-19T19:01:44.096Z,99104.47
2022-12-19T19:04:13.336Z,99100.72
2022-12-19T19:06:46.643Z,99099.50
2022-12-19T19:09:18.441Z,99106.44
2022-12-19T19:11:45.286Z,99092.25
2022-12-19T19:14:12.218Z,99105.81
2022-12-19T19:16:40.159Z,99089.28
2022-12-19T19:19:11.074Z,99096.66
2022-12-19T19:21:39.005Z,99098.13
2022-12-19T19:24:08.564Z,99102.09
2022-12-19T19:26:35.587Z,99099.38
2022-12-19T19:29:04.150Z,99107.72
2022-12-19T19:31:37.450Z,99106.25
2022-12-19T19:34:12.978Z,99105.22
2022-12-19T19:36:46.077Z,99107.94
2022-12-19T19:39:14.139Z,99111.69
2022-12-19T19:41:41.061Z,99114.41
2022-12-19T19:44:08.057Z,99111.69
2022-12-19T19:46:34.903Z,99117.13
2022-12-19T19:49:02.115Z,99105.03
2022-12-19T19:51:29.214Z,99102.72
2022-12-19T19:53:56.547Z,99093.16
2022-12-19T19:56:23.484Z,99090.03
2022-12-19T19:58:50.330Z,99097.09
2022-12-19T20:01:17.269Z,99097.97
2022-12-19T20:03:45.232Z,99100.06
2022-12-19T20:06:12.779Z,99106.31
2022-12-19T20:08:40.829Z,99110.06
2022-12-19T20:11:10.843Z,99100.50
2022-12-19T20:13:38.499Z,99103.19
2022-12-19T20:16:09.791Z,99092.16
2022-12-19T20:18:38.593Z,99096.34
2022-12-19T20:21:13.031Z,99100.50
2022-12-19T20:23:41.484Z,99101.78
2022-12-19T20:26:08.639Z,99105.50
2022-12-19T20:28:35.998Z,99106.78
2022-12-19T20:31:03.327Z,99102.59
2022-12-19T20:33:30.285Z,99095.72
2022-12-19T20:35:58.746Z,99093.22
2022-12-19T20:38:25.748Z,99094.66
2022-12-19T20:40:56.005Z,99099.25
2022-12-19T20:43:24.159Z,99103.00
2022-12-19T20:45:51.840Z,99094.22
2022-12-19T20:48:18.788Z,99099.25
2022-12-19T20:50:46.178Z,99098.66
2022-12-19T20:53:13.456Z,99095.94
2022-12-19T20:55:40.245Z,99094.88
2022-12-19T20:58:07.284Z,99098.19
2022-12-19T21:00:34.149Z,99092.78
2022-12-19T21:03:30.497Z,99091.72
2022-12-19T21:05:57.024Z,99098.19
2022-12-19T21:08:25.392Z,99093.38
2022-12-19T21:10:52.994Z,99097.16
2022-12-19T21:13:21.644Z,99092.59
2022-12-19T21:16:03.296Z,99096.75
2022-12-19T21:18:31.247Z,99102.59
2022-12-19T21:20:58.918Z,99095.06
2022-12-19T21:23:26.248Z,99082.31
2022-12-19T21:25:57.373Z,99090.91
2022-12-19T21:28:24.778Z,99085.88
2022-12-19T21:31:07.045Z,99088.81
2022-12-19T21:33:34.618Z,99081.72
2022-12-19T21:36:20.621Z,99085.88
2022-12-19T21:38:56.094Z,99089.63
2022-12-19T21:41:23.384Z,99078.78
2022-12-19T21:43:55.443Z,99079.59
2022-12-19T21:46:31.239Z,99088.34
2022-12-19T21:48:58.189Z,99078.56
2022-12-19T21:51:31.961Z,99075.66
2022-12-19T21:54:02.019Z,99078.16
2022-12-19T21:56:39.230Z,99078.78
2022-12-19T21:59:16.025Z,99075.84
2022-12-19T22:01:44.267Z,99075.84
2022-12-19T22:04:21.016Z,99074.19
2022-12-19T22:06:50.485Z,99074.38
2022-12-19T22:09:21.441Z,99077.09
2022-12-19T22:11:49.016Z,99067.94
2022-12-19T22:14:17.152Z,99072.94
2022-12-19T22:16:44.784Z,99066.66
2022-12-19T22:19:16.572Z,99053.31
2022-12-19T22:21:45.378Z,99060.00
2022-12-19T22:24:15.491Z,99072.13
2022-12-19T22:26:42.946Z,99072.13
2022-12-19T22:29:14.967Z,99071.72
2022-12-19T22:31:42.562Z,99077.38
2022-12-19T22:34:19.671Z,99073.44
2022-12-19T22:36:48.005Z,99070.72
2022-12-19T22:39:19.695Z,99074.06
2022-12-19T22:41:47.271Z,99066.78
2022-12-19T22:44:19.756Z,99079.53
2022-12-19T22:46:46.870Z,99068.69
2022-12-19T22:49:14.261Z,99066.78
2022-12-19T22:51:41.588Z,99073.50
2022-12-19T22:54:09.173Z,99072.25
2022-12-19T22:56:36.897Z,99074.13
2022-12-19T22:59:10.263Z,99080.59
2022-12-19T23:01:40.946Z,99078.09
2022-12-19T23:04:11.722Z,99079.78
2022-12-19T23:06:39.214Z,99083.31
2022-12-19T23:09:09.327Z,99075.44
2022-12-19T23:11:39.581Z,99077.28
2022-12-19T23:14:09.062Z,99079.38
2022-12-19T23:16:35.971Z,99079.38
2022-12-19T23:19:02.915Z,99085.03
2022-12-19T23:21:30.256Z,99078.78
2022-12-19T23:23:57.199Z,99081.91
2022-12-19T23:26:28.811Z,99081.28
2022-12-19T23:29:01.787Z,99090.28
2022-12-19T23:31:30.426Z,99090.06
2022-12-19T23:33:58.361Z,99088.63
2022-12-19T23:37:00.596Z,99091.56
2022-12-19T23:39:13.054Z,99093.03
2022-12-19T23:41:40.728Z,99091.16
2022-12-19T23:44:09.055Z,99094.28
2022-12-19T23:46:36.657Z,99091.59
2022-12-19T23:49:04.089Z,99094.94
2022-12-19T23:51:30.948Z,99084.72
2022-12-19T23:53:57.821Z,99093.47
2022-12-19T23:56:28.775Z,99095.75
2022-12-19T23:58:56.162Z,99097.47
